createdAt,value
2022-11-27T00:02:26.534Z,9.30
2022-11-27T00:04:53.344Z,9.07
2022-11-27T00:07:20.156Z,8.70
2022-11-27T00:09:47.092Z,9.30
2022-11-27T00:12:13.944Z,8.73
2022-11-27T00:14:40.721Z,8.13
2022-11-27T00:17:07.540Z,7.87
2022-11-27T00:19:34.333Z,8.63
2022-11-27T00:22:01.142Z,6.93
2022-11-27T00:24:28.112Z,7.63
2022-11-27T00:26:54.943Z,8.10
2022-11-27T00:29:22.028Z,6.80
2022-11-27T00:31:48.851Z,6.70
2022-11-27T00:34:15.816Z,6.83
2022-11-27T00:36:46.621Z,6.50
2022-11-27T00:39:15.237Z,5.90
2022-11-27T00:41:42.147Z,6.77
2022-11-27T00:44:08.957Z,5.90
2022-11-27T00:46:36.187Z,6.17
2022-11-27T00:49:05.564Z,5.73
2022-11-27T00:51:32.581Z,5.70
2022-11-27T00:54:00.010Z,5.93
2022-11-27T00:56:29.227Z,5.83
2022-11-27T00:58:56.520Z,6.20
2022-11-27T01:01:27.475Z,6.30
2022-11-27T01:03:55.981Z,6.13
2022-11-27T01:06:22.876Z,5.90
2022-11-27T01:08:49.747Z,6.33
2022-11-27T01:11:23.234Z,6.20
2022-11-27T01:13:49.995Z,6.33
2022-11-27T01:16:19.848Z,6.70
2022-11-27T01:18:49.162Z,6.53
2022-11-27T01:21:18.683Z,7.03
2022-11-27T01:23:46.418Z,7.47
2022-11-27T01:26:13.457Z,7.03
2022-11-27T01:28:40.775Z,7.73
2022-11-27T01:31:11.234Z,6.67
2022-11-27T01:33:38.423Z,7.57
2022-11-27T01:36:07.190Z,7.87
2022-11-27T01:38:34.614Z,7.73
2022-11-27T01:41:16.376Z,7.83
2022-11-27T01:43:53.470Z,7.63
2022-11-27T01:46:23.109Z,7.73
2022-11-27T01:48:51.980Z,8.07
2022-11-27T01:51:20.626Z,7.80
2022-11-27T01:53:47.748Z,8.50
2022-11-27T01:56:15.464Z,8.43
2022-11-27T01:58:42.524Z,8.50
2022-11-27T02:01:09.957Z,7.90
2022-11-27T02:03:36.876Z,8.13
2022-11-27T02:06:03.820Z,8.43
2022-11-27T02:08:30.956Z,8.90
2022-11-27T02:11:09.518Z,9.57
2022-11-27T02:13:41.166Z,7.90
2022-11-27T02:16:47.977Z,8.93
2022-11-27T02:19:27.471Z,8.60
2022-11-27T02:21:56.324Z,8.47
2022-11-27T02:24:43.168Z,7.73
2022-11-27T02:27:48.388Z,8.03
2022-11-27T02:30:16.164Z,8.10
2022-11-27T02:32:57.389Z,8.30
2022-11-27T02:35:52.358Z,9.27
2022-11-27T02:38:26.278Z,7.33
2022-11-27T02:41:21.468Z,9.00
2022-11-27T02:43:51.565Z,8.70
2022-11-27T02:46:20.403Z,8.83
2022-11-27T02:48:55.414Z,7.73
2022-11-27T02:51:35.385Z,7.23
2022-11-27T02:54:05.329Z,8.53
2022-11-27T02:56:33.834Z,8.90
2022-11-27T02:59:06.389Z,8.30
2022-11-27T03:01:38.782Z,8.27
2022-11-27T03:04:10.948Z,8.43
2022-11-27T03:06:46.048Z,8.33
2022-11-27T03:09:18.886Z,8.00
2022-11-27T03:11:46.312Z,8.43
2022-11-27T03:14:15.373Z,9.30
2022-11-27T03:17:02.570Z,8.80
2022-11-27T03:20:01.952Z,8.37
2022-11-27T03:22:28.783Z,8.63
2022-11-27T03:24:55.592Z,9.33
2022-11-27T03:27:30.575Z,9.30
2022-11-27T03:30:00.588Z,8.93
2022-11-27T03:32:28.770Z,9.27
2022-11-27T03:34:56.356Z,9.43
2022-11-27T03:37:24.128Z,8.83
2022-11-27T03:39:52.771Z,9.60
2022-11-27T03:42:25.607Z,9.23
2022-11-27T03:45:06.325Z,8.83
2022-11-27T03:48:03.957Z,9.27
2022-11-27T03:50:41.677Z,8.97
2022-11-27T03:53:27.544Z,9.80
2022-11-27T03:56:12.332Z,9.60
2022-11-27T03:58:46.036Z,8.87
2022-11-27T04:01:15.334Z,8.97
2022-11-27T04:03:42.181Z,9.70
2022-11-27T04:06:09.104Z,9.47
2022-11-27T04:08:35.844Z,8.60
2022-11-27T04:11:02.589Z,9.43
2022-11-27T04:13:29.308Z,9.20
2022-11-27T04:15:56.131Z,8.80
2022-11-27T04:18:22.924Z,9.67
2022-11-27T04:20:49.732Z,9.53
2022-11-27T04:23:16.533Z,9.50
2022-11-27T04:25:43.314Z,9.17
2022-11-27T04:28:10.260Z,9.03
2022-11-27T04:30:37.133Z,9.27
2022-11-27T04:33:04.053Z,9.13
2022-11-27T04:35:30.774Z,8.20
2022-11-27T04:37:58.156Z,8.73
2022-11-27T04:40:25.110Z,9.13
2022-11-27T04:42:52.087Z,9.10
2022-11-27T04:45:18.865Z,9.43
2022-11-27T04:47:45.694Z,8.87
2022-11-27T04:50:12.542Z,8.97
2022-11-27T04:52:39.390Z,8.67
2022-11-27T04:55:06.682Z,8.80
2022-11-27T04:57:33.708Z,9.23
2022-11-27T05:00:00.583Z,9.00
2022-11-27T05:02:27.514Z,8.70
2022-11-27T05:04:54.757Z,8.40
2022-11-27T05:07:21.556Z,8.97
2022-11-27T05:09:48.544Z,8.77
2022-11-27T05:12:15.331Z,8.83
2022-11-27T05:14:42.389Z,8.63
2022-11-27T05:17:09.962Z,9.03
2022-11-27T05:19:36.851Z,8.47
2022-11-27T05:22:03.636Z,8.70
2022-11-27T05:24:30.456Z,8.37
2022-11-27T05:26:57.504Z,8.90
2022-11-27T05:29:25.912Z,8.97
2022-11-27T05:31:53.054Z,7.80
2022-11-27T05:34:20.124Z,8.77
2022-11-27T05:36:47.312Z,8.10
2022-11-27T05:39:14.517Z,8.40
2022-11-27T05:41:43.371Z,9.13
2022-11-27T05:44:12.941Z,8.00
2022-11-27T05:46:40.334Z,8.50
2022-11-27T05:49:07.246Z,8.50
2022-11-27T05:51:33.988Z,8.33
2022-11-27T05:54:00.727Z,7.37
2022-11-27T05:56:27.457Z,8.40
2022-11-27T05:58:54.258Z,7.70
2022-11-27T06:01:21.311Z,8.50
2022-11-27T06:03:48.200Z,7.30
2022-11-27T06:06:17.746Z,7.40
2022-11-27T06:08:45.779Z,7.87
2022-11-27T06:11:15.784Z,7.53
2022-11-27T06:13:43.329Z,7.70
2022-11-27T06:16:22.094Z,6.97
2022-11-27T06:18:51.173Z,7.37
2022-11-27T06:21:18.414Z,7.80
2022-11-27T06:23:45.856Z,7.40
2022-11-27T06:26:19.679Z,7.50
2022-11-27T06:28:47.653Z,6.80
2022-11-27T06:31:18.546Z,7.03
2022-11-27T06:33:46.727Z,6.63
2022-11-27T06:36:13.608Z,6.83
2022-11-27T06:38:40.660Z,6.40
2022-11-27T06:41:13.254Z,6.60
2022-11-27T06:43:40.770Z,6.83
2022-11-27T06:46:11.404Z,6.73
2022-11-27T06:48:38.242Z,6.80
2022-11-27T06:51:07.125Z,6.93
2022-11-27T06:53:36.737Z,6.67
2022-11-27T06:56:05.052Z,6.83
2022-11-27T06:58:31.809Z,7.07
2022-11-27T07:00:59.959Z,6.70
2022-11-27T07:03:27.378Z,7.20
2022-11-27T07:05:54.411Z,6.60
2022-11-27T07:08:22.373Z,7.43
2022-11-27T07:10:49.267Z,7.00
2022-11-27T07:13:16.019Z,6.30
2022-11-27T07:15:43.527Z,6.07
2022-11-27T07:18:10.738Z,5.97
2022-11-27T07:20:37.578Z,5.63
2022-11-27T07:23:04.574Z,6.43
2022-11-27T07:25:31.435Z,6.47
2022-11-27T07:27:58.248Z,6.20
2022-11-27T07:30:25.031Z,5.83
2022-11-27T07:32:51.807Z,5.80
2022-11-27T07:35:18.775Z,6.53
2022-11-27T07:37:45.563Z,6.03
2022-11-27T07:40:14.853Z,5.87
2022-11-27T07:42:41.928Z,6.50
2022-11-27T07:45:09.685Z,6.50
2022-11-27T07:47:36.975Z,5.80
2022-11-27T07:50:05.602Z,6.17
2022-11-27T07:52:35.526Z,6.07
2022-11-27T07:55:06.550Z,6.03
2022-11-27T07:57:33.328Z,6.30
2022-11-27T08:00:00.093Z,6.00
2022-11-27T08:02:26.914Z,6.20
2022-11-27T08:04:53.677Z,6.10
2022-11-27T08:07:20.548Z,5.60
2022-11-27T08:09:47.512Z,6.00
2022-11-27T08:12:14.593Z,5.47
2022-11-27T08:14:41.600Z,6.70
2022-11-27T08:17:12.483Z,6.90
2022-11-27T08:19:39.287Z,6.13
2022-11-27T08:22:07.019Z,5.67
2022-11-27T08:24:34.039Z,6.20
2022-11-27T08:27:00.838Z,6.47
2022-11-27T08:29:32.612Z,6.40
2022-11-27T08:32:00.812Z,6.30
2022-11-27T08:34:27.644Z,5.97
2022-11-27T08:36:54.438Z,5.63
2022-11-27T08:39:21.409Z,6.27
2022-11-27T08:41:48.168Z,5.50
2022-11-27T08:44:14.920Z,6.07
2022-11-27T08:46:43.672Z,5.40
2022-11-27T08:49:10.452Z,5.97
2022-11-27T08:51:37.271Z,5.30
2022-11-27T08:54:04.406Z,5.23
2022-11-27T08:56:31.563Z,5.03
2022-11-27T08:58:58.895Z,5.03
2022-11-27T09:01:28.090Z,5.20
2022-11-27T09:03:55.202Z,4.87
2022-11-27T09:06:28.290Z,5.07
2022-11-27T09:09:04.073Z,4.80
2022-11-27T09:11:32.269Z,4.63
2022-11-27T09:14:04.090Z,4.23
2022-11-27T09:16:31.218Z,4.60
2022-11-27T09:18:58.510Z,4.77
2022-11-27T09:21:32.734Z,4.33
2022-11-27T09:24:01.196Z,4.53
2022-11-27T09:26:29.268Z,4.27
2022-11-27T09:28:58.272Z,4.43
2022-11-27T09:31:26.144Z,4.63
2022-11-27T09:33:53.186Z,4.27
2022-11-27T09:36:24.160Z,4.33
2022-11-27T09:38:51.878Z,3.97
2022-11-27T09:41:33.709Z,4.30
2022-11-27T09:44:16.839Z,4.43
2022-11-27T09:46:44.689Z,4.10
2022-11-27T09:49:19.942Z,4.50
2022-11-27T09:52:01.553Z,4.00
2022-11-27T09:54:42.035Z,4.23
2022-11-27T09:57:16.477Z,4.40
2022-11-27T09:59:50.967Z,4.07
2022-11-27T10:02:27.372Z,4.20
2022-11-27T10:08:07.211Z,4.13
2022-11-27T10:10:34.329Z,4.03
2022-11-27T10:13:13.646Z,4.20
2022-11-27T10:15:50.650Z,3.60
2022-11-27T10:18:42.696Z,3.90
2022-11-27T10:21:25.881Z,4.07
2022-11-27T10:24:04.808Z,4.23
2022-11-27T10:26:40.726Z,4.17
2022-11-27T10:29:34.806Z,3.73
2022-11-27T10:32:52.794Z,3.77
2022-11-27T10:35:13.890Z,3.77
2022-11-27T10:38:14.176Z,3.70
2022-11-27T10:41:03.017Z,3.97
2022-11-27T10:43:29.847Z,3.47
2022-11-27T10:46:04.047Z,3.67
2022-11-27T10:48:31.154Z,3.43
2022-11-27T10:50:58.053Z,3.33
2022-11-27T10:53:32.386Z,3.50
2022-11-27T10:56:20.311Z,3.20
2022-11-27T10:58:58.936Z,3.30
2022-11-27T11:01:28.280Z,3.00
2022-11-27T11:04:35.890Z,3.47
2022-11-27T11:06:57.354Z,3.10
2022-11-27T11:09:31.081Z,3.43
2022-11-27T11:12:21.125Z,3.27
2022-11-27T11:14:59.956Z,3.17
2022-11-27T11:17:40.783Z,2.87
2022-11-27T11:20:20.511Z,3.07
2022-11-27T11:22:48.499Z,3.00
2022-11-27T11:25:20.674Z,2.83
2022-11-27T11:27:50.032Z,3.20
2022-11-27T11:30:23.306Z,2.87
2022-11-27T11:32:52.359Z,2.80
2022-11-27T11:35:30.627Z,2.37
2022-11-27T11:37:58.193Z,2.60
2022-11-27T11:40:35.002Z,2.60
2022-11-27T11:43:04.280Z,2.40
2022-11-27T11:45:33.393Z,2.87
2022-11-27T11:48:01.568Z,2.47
2022-11-27T11:50:54.781Z,2.20
2022-11-27T11:53:30.456Z,2.87
2022-11-27T11:56:09.860Z,2.30
2022-11-27T11:58:54.577Z,2.43
2022-11-27T12:01:38.824Z,2.50
2022-11-27T12:04:20.986Z,2.30
2022-11-27T12:07:11.991Z,2.37
2022-11-27T12:09:51.146Z,2.30
2022-11-27T12:12:37.804Z,2.40
2022-11-27T12:15:26.339Z,2.30
2022-11-27T12:18:44.445Z,2.50
2022-11-27T12:21:15.511Z,2.50
2022-11-27T12:23:57.023Z,2.30
2022-11-27T12:26:54.877Z,2.63
2022-11-27T12:29:36.485Z,2.50
2022-11-27T12:32:03.499Z,2.00
2022-11-27T12:34:59.511Z,2.43
2022-11-27T12:37:38.438Z,2.20
2022-11-27T12:40:39.237Z,2.50
2022-11-27T12:43:28.195Z,2.37
2022-11-27T12:46:05.608Z,2.63
2022-11-27T12:48:46.345Z,2.20
2022-11-27T12:51:22.581Z,2.13
2022-11-27T12:53:57.251Z,2.10
2022-11-27T12:56:45.150Z,2.40
2022-11-27T12:59:20.833Z,2.00
2022-11-27T13:02:11.325Z,1.87
2022-11-27T13:04:50.300Z,2.10
2022-11-27T13:07:21.782Z,2.10
2022-11-27T13:10:17.216Z,2.00
2022-11-27T13:13:10.951Z,2.00
2022-11-27T13:15:44.609Z,1.90
2022-11-27T13:18:26.557Z,2.10
2022-11-27T13:20:54.738Z,1.90
2022-11-27T13:23:22.521Z,1.90
2022-11-27T13:25:54.286Z,1.90
2022-11-27T13:28:50.294Z,2.10
2022-11-27T13:31:24.884Z,2.00
2022-11-27T13:33:57.829Z,2.20
2022-11-27T13:36:31.014Z,2.30
2022-11-27T13:39:02.057Z,2.17
2022-11-27T13:41:40.223Z,2.10
2022-11-27T13:44:28.627Z,1.83
2022-11-27T13:47:00.166Z,1.80
2022-11-27T13:49:32.907Z,1.90
2022-11-27T13:52:21.360Z,2.00
2022-11-27T13:55:03.079Z,2.10
2022-11-27T13:57:31.250Z,2.00
2022-11-27T14:00:01.098Z,1.73
2022-11-27T14:02:42.823Z,1.90
2022-11-27T14:05:11.215Z,2.17
2022-11-27T14:07:41.634Z,2.07
2022-11-27T14:10:14.797Z,1.87
2022-11-27T14:12:42.918Z,1.50
2022-11-27T14:15:18.765Z,1.70
2022-11-27T14:17:48.331Z,1.93
2022-11-27T14:20:18.289Z,2.03
2022-11-27T14:23:10.405Z,1.97
2022-11-27T14:25:38.971Z,1.83
2022-11-27T14:28:36.485Z,2.07
2022-11-27T14:31:04.420Z,1.73
2022-11-27T14:33:47.439Z,2.13
2022-11-27T14:36:26.003Z,1.70
2022-11-27T14:38:54.426Z,1.93
2022-11-27T14:41:23.578Z,1.50
2022-11-27T14:44:01.368Z,1.47
2022-11-27T14:46:29.124Z,1.80
2022-11-27T14:48:56.542Z,1.90
2022-11-27T14:51:35.264Z,1.70
2022-11-27T14:54:05.826Z,2.00
2022-11-27T14:56:35.903Z,1.80
2022-11-27T14:59:03.655Z,1.70
2022-11-27T15:01:33.255Z,1.70
2022-11-27T15:04:05.524Z,2.17
2022-11-27T15:06:46.520Z,1.83
2022-11-27T15:09:33.338Z,1.83
2022-11-27T15:12:18.759Z,1.57
2022-11-27T15:14:56.656Z,1.77
2022-11-27T15:17:29.561Z,1.50
2022-11-27T15:19:57.532Z,1.90
2022-11-27T15:22:24.846Z,1.60
2022-11-27T15:25:02.734Z,2.07
2022-11-27T15:27:46.259Z,2.20
2022-11-27T15:30:18.397Z,1.97
2022-11-27T15:32:52.995Z,1.33
2022-11-27T15:35:22.424Z,1.67
2022-11-27T15:37:51.371Z,1.77
2022-11-27T15:40:24.254Z,1.97
2022-11-27T15:42:51.225Z,2.20
2022-11-27T15:45:18.018Z,2.03
2022-11-27T15:47:45.159Z,1.70
2022-11-27T15:50:16.782Z,2.07
2022-11-27T15:52:43.939Z,1.60
2022-11-27T15:55:17.312Z,1.60
2022-11-27T15:57:44.340Z,1.70
2022-11-27T16:00:11.568Z,1.70
2022-11-27T16:02:39.267Z,1.63
2022-11-27T16:05:07.965Z,1.47
2022-11-27T16:07:35.117Z,1.90
2022-11-27T16:10:02.215Z,1.47
2022-11-27T16:12:29.274Z,1.77
2022-11-27T16:14:56.163Z,1.80
2022-11-27T16:17:23.031Z,1.93
2022-11-27T16:19:49.808Z,1.60
2022-11-27T16:22:16.567Z,1.70
2022-11-27T16:24:43.836Z,1.60
2022-11-27T16:27:11.051Z,1.77
2022-11-27T16:29:38.012Z,1.87
2022-11-27T16:32:06.127Z,1.93
2022-11-27T16:34:33.328Z,1.40
2022-11-27T16:37:00.134Z,1.83
2022-11-27T16:39:26.997Z,1.40
2022-11-27T16:41:53.806Z,1.60
2022-11-27T16:44:20.621Z,1.80
2022-11-27T16:46:47.636Z,1.70
2022-11-27T16:49:14.454Z,2.30
2022-11-27T16:51:41.966Z,1.80
2022-11-27T16:54:11.600Z,1.63
2022-11-27T16:56:38.723Z,1.77
2022-11-27T16:59:13.498Z,1.70
2022-11-27T17:01:41.696Z,2.53
2022-11-27T17:04:14.584Z,1.70
2022-11-27T17:06:41.394Z,1.83
2022-11-27T17:09:08.822Z,1.87
2022-11-27T17:11:37.340Z,1.90
2022-11-27T17:14:08.722Z,1.97
2022-11-27T17:16:36.614Z,1.90
2022-11-27T17:19:03.960Z,2.17
2022-11-27T17:21:32.586Z,1.90
2022-11-27T17:24:10.081Z,2.00
2022-11-27T17:26:42.420Z,1.80
2022-11-27T17:29:10.547Z,1.97
2022-11-27T17:31:38.090Z,2.10
2022-11-27T17:34:06.705Z,2.10
2022-11-27T17:36:37.133Z,2.30
2022-11-27T17:39:05.769Z,2.60
2022-11-27T17:41:33.080Z,2.37
2022-11-27T17:44:00.427Z,2.23
2022-11-27T17:46:29.340Z,2.03
2022-11-27T17:48:59.561Z,2.00
2022-11-27T17:51:30.946Z,2.10
2022-11-27T17:54:01.994Z,1.73
2022-11-27T17:56:29.544Z,1.97
2022-11-27T17:58:56.397Z,2.00
2022-11-27T18:01:26.145Z,2.00
2022-11-27T18:04:00.393Z,2.20
2022-11-27T18:06:27.798Z,1.93
2022-11-27T18:08:56.542Z,2.13
2022-11-27T18:11:26.021Z,2.20
2022-11-27T18:13:52.964Z,2.00
2022-11-27T18:16:35.364Z,2.33
2022-11-27T18:19:10.596Z,2.50
2022-11-27T18:21:38.559Z,1.83
2022-11-27T18:24:23.653Z,2.30
2022-11-27T18:27:08.740Z,2.23
2022-11-27T18:29:42.262Z,2.00
2022-11-27T18:32:09.792Z,2.30
2022-11-27T18:34:36.712Z,2.07
2022-11-27T18:37:04.181Z,2.10
2022-11-27T18:39:31.676Z,2.37
2022-11-27T18:41:58.667Z,2.23
2022-11-27T18:44:26.812Z,2.83
2022-11-27T18:46:53.699Z,2.70
2022-11-27T18:49:22.927Z,2.67
2022-11-27T18:51:51.555Z,2.03
2022-11-27T18:54:18.507Z,2.37
2022-11-27T18:56:45.387Z,2.37
2022-11-27T18:59:12.557Z,2.67
2022-11-27T19:01:42.399Z,2.57
2022-11-27T19:04:11.250Z,2.60
2022-11-27T19:06:39.793Z,2.27
2022-11-27T19:09:06.980Z,2.60
2022-11-27T19:11:35.255Z,2.30
2022-11-27T19:14:02.254Z,2.00
2022-11-27T19:16:34.598Z,2.50
2022-11-27T19:19:03.345Z,2.10
2022-11-27T19:21:32.003Z,2.83
2022-11-27T19:24:00.571Z,2.30
2022-11-27T19:26:30.342Z,2.27
2022-11-27T19:28:59.620Z,2.57
2022-11-27T19:31:27.250Z,2.47
2022-11-27T19:33:56.536Z,2.50
2022-11-27T19:36:23.528Z,2.73
2022-11-27T19:38:55.384Z,2.57
2022-11-27T19:41:22.411Z,2.50
2022-11-27T19:43:49.398Z,2.50
2022-11-27T19:46:20.375Z,2.23
2022-11-27T19:48:48.093Z,2.70
2022-11-27T19:51:15.603Z,2.47
2022-11-27T19:53:43.272Z,2.20
2022-11-27T19:56:10.825Z,2.40
2022-11-27T19:58:38.570Z,2.47
2022-11-27T20:01:14.176Z,2.30
2022-11-27T20:03:44.585Z,2.60
2022-11-27T20:06:16.447Z,2.80
2022-11-27T20:08:44.891Z,2.77
2022-11-27T20:11:16.171Z,2.30
2022-11-27T20:13:42.974Z,2.30
2022-11-27T20:16:12.343Z,2.70
2022-11-27T20:18:39.702Z,2.80
2022-11-27T20:21:17.714Z,2.30
2022-11-27T20:23:46.107Z,2.33
2022-11-27T20:26:18.993Z,2.50
2022-11-27T20:28:46.268Z,2.77
2022-11-27T20:31:18.159Z,2.57
2022-11-27T20:33:45.576Z,2.33
2022-11-27T20:36:15.176Z,2.40
2022-11-27T20:38:44.562Z,2.43
2022-11-27T20:41:14.536Z,2.77
2022-11-27T20:43:42.986Z,2.40
2022-11-27T20:46:13.018Z,2.40
2022-11-27T20:48:39.868Z,2.53
2022-11-27T20:51:13.800Z,2.47
2022-11-27T20:53:41.367Z,2.80
2022-11-27T20:56:09.776Z,3.40
2022-11-27T20:58:38.245Z,2.60
2022-11-27T21:01:18.234Z,2.93
2022-11-27T21:03:46.684Z,3.40
2022-11-27T21:06:15.288Z,3.80
2022-11-27T21:08:42.561Z,3.43
2022-11-27T21:11:25.243Z,3.37
2022-11-27T21:13:57.441Z,3.57
2022-11-27T21:16:29.314Z,3.10
2022-11-27T21:19:02.670Z,2.87
2022-11-27T21:21:30.194Z,3.00
2022-11-27T21:23:57.307Z,3.20
2022-11-27T21:26:24.928Z,3.40
2022-11-27T21:28:52.110Z,2.80
2022-11-27T21:31:22.385Z,3.23
2022-11-27T21:33:58.093Z,3.07
2022-11-27T21:36:27.738Z,3.30
2022-11-27T21:38:55.307Z,3.33
2022-11-27T21:41:22.638Z,3.27
2022-11-27T21:43:53.467Z,3.40
2022-11-27T21:46:22.630Z,3.30
2022-11-27T21:48:51.668Z,3.03
2022-11-27T21:51:21.258Z,3.10
2022-11-27T21:53:50.354Z,3.03
2022-11-27T21:56:19.850Z,2.60
2022-11-27T21:58:46.859Z,2.57
2022-11-27T22:01:16.568Z,2.53
2022-11-27T22:03:43.758Z,2.60
2022-11-27T22:06:13.151Z,2.70
2022-11-27T22:08:41.077Z,2.60
2022-11-27T22:11:14.301Z,2.70
2022-11-27T22:13:42.037Z,2.87
2022-11-27T22:16:18.807Z,2.80
2022-11-27T22:18:46.169Z,2.97
2022-11-27T22:21:13.905Z,3.13
2022-11-27T22:23:41.833Z,3.20
2022-11-27T22:26:11.763Z,2.93
2022-11-27T22:28:38.908Z,3.40
2022-11-27T22:31:14.790Z,3.07
2022-11-27T22:33:42.933Z,2.70
2022-11-27T22:36:18.671Z,3.10
2022-11-27T22:38:47.925Z,2.73
2022-11-27T22:41:15.915Z,2.93
2022-11-27T22:43:43.081Z,3.00
2022-11-27T22:46:20.379Z,3.50
2022-11-27T22:48:47.398Z,3.23
2022-11-27T22:51:14.247Z,3.50
2022-11-27T22:53:41.187Z,3.10
2022-11-27T22:56:11.828Z,3.03
2022-11-27T22:58:41.564Z,3.27
2022-11-27T23:01:21.035Z,3.20
2022-11-27T23:03:47.918Z,2.93
2022-11-27T23:06:16.651Z,3.60
2022-11-27T23:08:45.651Z,3.60
2022-11-27T23:11:16.344Z,3.60
2022-11-27T23:13:48.145Z,2.90
2022-11-27T23:16:17.644Z,2.97
2022-11-27T23:18:44.562Z,3.00
2022-11-27T23:21:16.587Z,3.07
2022-11-27T23:23:44.563Z,2.67
2022-11-27T23:26:18.227Z,3.10
2022-11-27T23:28:46.861Z,3.20
2022-11-27T23:31:32.132Z,3.20
2022-11-27T23:34:01.886Z,3.70
2022-11-27T23:36:30.448Z,3.30
2022-11-27T23:39:00.761Z,3.20
2022-11-27T23:41:28.201Z,2.90
2022-11-27T23:43:56.405Z,3.50
2022-11-27T23:46:26.794Z,3.40
2022-11-27T23:48:55.977Z,3.67
2022-11-27T23:51:25.988Z,3.40
2022-11-27T23:53:53.496Z,3.50
2022-11-27T23:56:25.315Z,3.13
2022-11-27T23:58:53.220Z,3.13
